createdAt,value
2023-05-20T00:01:36.824Z,11.68
2023-05-20T00:11:37.028Z,11.68
2023-05-20T00:21:37.183Z,11.62
2023-05-20T00:31:37.471Z,11.67
2023-05-20T00:41:37.521Z,11.65
2023-05-20T00:51:37.707Z,11.62
2023-05-20T01:01:37.891Z,11.41
2023-05-20T01:11:38.227Z,11.07
2023-05-20T01:21:38.133Z,10.68
2023-05-20T01:31:38.375Z,10.66
2023-05-20T01:41:38.433Z,10.68
2023-05-20T01:51:38.627Z,10.39
2023-05-20T02:01:38.771Z,10.15
2023-05-20T02:11:38.982Z,10.04
2023-05-20T02:21:39.164Z,10.04
2023-05-20T02:31:39.255Z,10.33
2023-05-20T02:41:39.387Z,10.42
2023-05-20T02:51:39.789Z,10.46
2023-05-20T03:01:39.798Z,10.47
2023-05-20T03:11:39.936Z,10.42
2023-05-20T03:21:40.285Z,10.52
2023-05-20T03:31:40.382Z,10.65
2023-05-20T03:41:40.540Z,10.99
2023-05-20T03:51:40.414Z,10.96
2023-05-20T04:01:40.617Z,10.92
2023-05-20T04:11:40.789Z,11.17
2023-05-20T04:21:40.929Z,11.29
2023-05-20T04:31:41.412Z,11.56
2023-05-20T04:41:41.277Z,11.82
2023-05-20T04:51:41.512Z,12.12
2023-05-20T05:01:42.170Z,12.34
2023-05-20T05:11:41.954Z,12.44
2023-05-20T05:21:42.083Z,12.37
2023-05-20T05:31:42.382Z,12.49
2023-05-20T05:41:42.309Z,12.95
2023-05-20T05:51:42.551Z,13.22
2023-05-20T06:01:42.935Z,13.24
2023-05-20T06:11:42.955Z,13.62
2023-05-20T06:21:43.108Z,14.42
2023-05-20T06:31:43.316Z,14.44
2023-05-20T06:41:43.470Z,14.20
2023-05-20T06:51:43.693Z,14.54
2023-05-20T07:01:43.885Z,15.27
2023-05-20T07:11:43.959Z,15.96
2023-05-20T07:21:44.092Z,16.68
2023-05-20T07:31:44.325Z,16.22
2023-05-20T07:41:44.441Z,16.85
2023-05-20T07:51:44.654Z,16.63
2023-05-20T08:01:44.792Z,17.40
2023-05-20T08:11:47.223Z,17.32
2023-05-20T08:21:45.195Z,17.36
2023-05-20T08:31:45.400Z,17.11
2023-05-20T08:41:45.592Z,17.81
2023-05-20T08:51:45.829Z,18.34
2023-05-20T09:01:46.058Z,18.84
2023-05-20T09:11:46.144Z,19.32
2023-05-20T09:21:46.313Z,19.76
2023-05-20T09:31:46.567Z,19.78
2023-05-20T09:41:46.620Z,21.46
2023-05-20T09:51:46.855Z,23.76
2023-05-20T10:01:47.060Z,20.83
2023-05-20T10:11:47.413Z,20.95
2023-05-20T10:21:47.439Z,23.22
2023-05-20T10:31:47.963Z,23.40
2023-05-20T10:41:47.777Z,22.78
2023-05-20T10:51:48.006Z,24.49
2023-05-20T11:01:48.165Z,24.42
2023-05-20T11:11:48.387Z,22.34
2023-05-20T11:21:48.542Z,22.59
2023-05-20T11:31:48.755Z,24.24
2023-05-20T11:41:48.941Z,25.07
2023-05-20T11:51:49.161Z,27.28
2023-05-20T12:01:49.320Z,24.01
2023-05-20T12:11:49.535Z,26.67
2023-05-20T12:21:49.718Z,27.85
2023-05-20T12:31:50.118Z,27.28
2023-05-20T12:41:50.349Z,25.61
2023-05-20T12:51:50.225Z,25.56
2023-05-20T13:01:50.472Z,25.82
2023-05-20T13:11:50.526Z,26.74
2023-05-20T13:21:50.666Z,26.76
2023-05-20T13:31:51.129Z,24.17
2023-05-20T13:41:51.378Z,26.02
2023-05-20T13:51:51.294Z,28.03
2023-05-20T14:01:51.542Z,27.62
2023-05-20T14:11:51.671Z,27.28
2023-05-20T14:21:51.816Z,27.41
2023-05-20T14:31:52.075Z,29.50
2023-05-20T14:41:52.132Z,26.04
2023-05-20T14:51:52.372Z,27.06
2023-05-20T15:01:52.474Z,28.22
2023-05-20T15:11:52.684Z,29.13
2023-05-20T15:21:52.879Z,28.28
2023-05-20T15:31:53.057Z,27.14
2023-05-20T15:41:53.218Z,27.70
2023-05-20T15:52:02.447Z,28.10
2023-05-20T16:01:54.604Z,29.74
2023-05-20T16:11:53.819Z,29.00
2023-05-20T16:21:53.983Z,29.77
2023-05-20T16:31:54.230Z,28.80
2023-05-20T16:41:54.311Z,28.72
2023-05-20T16:51:54.530Z,27.26
2023-05-20T17:01:54.629Z,26.68
2023-05-20T17:11:54.950Z,26.01
2023-05-20T17:21:54.978Z,24.64
2023-05-20T17:31:55.373Z,24.14
2023-05-20T17:41:55.287Z,24.00
2023-05-20T17:51:55.594Z,23.53
2023-05-20T18:01:55.706Z,22.86
2023-05-20T18:11:55.832Z,22.13
2023-05-20T18:21:55.937Z,21.54
2023-05-20T18:31:56.203Z,20.79
2023-05-20T18:41:56.654Z,20.20
2023-05-20T18:51:56.520Z,19.80
2023-05-20T19:01:56.694Z,19.53
2023-05-20T19:11:56.927Z,19.11
2023-05-20T19:21:57.096Z,18.79
2023-05-20T19:31:57.299Z,18.31
2023-05-20T19:41:57.703Z,17.91
2023-05-20T19:51:57.675Z,17.73
2023-05-20T20:01:57.962Z,17.64
2023-05-20T20:11:58.111Z,17.32
2023-05-20T20:21:58.609Z,17.26
2023-05-20T20:31:58.434Z,16.85
2023-05-20T20:41:58.918Z,16.77
2023-05-20T20:51:58.764Z,16.60
2023-05-20T21:01:58.961Z,16.50
2023-05-20T21:11:59.213Z,16.27
2023-05-20T21:21:59.247Z,15.88
2023-05-20T21:31:59.437Z,15.75
2023-05-20T21:41:59.586Z,16.07
2023-05-20T21:51:59.781Z,16.11
2023-05-20T22:02:00.075Z,15.93
2023-05-20T22:12:00.182Z,15.88
2023-05-20T22:22:01.542Z,15.54
2023-05-20T22:32:00.844Z,15.35
2023-05-20T22:42:00.520Z,15.20
2023-05-20T22:52:00.708Z,15.03
2023-05-20T23:02:01.113Z,14.94
2023-05-20T23:12:01.102Z,14.98
2023-05-20T23:22:01.267Z,14.64
2023-05-20T23:32:01.458Z,14.83
2023-05-20T23:42:01.616Z,14.50
2023-05-20T23:52:01.787Z,14.60
